Floda, Sweden

1:40 PM CET on February 09, 2016 (GMT +0100)
Sparreholm | | Change Station
CLOSE
Current Station
Personal Weather Station
Location: Sparreholm, SDERMANLANDS LN
Elevation: 125 ft
Nearby Weather Stations

Elev 125 ft 59.07 °N, 16.83 °E | Updated 26 seconds ago

Mostly Cloudy
Mostly Cloudy
44.8 °F
Feels Like 45 °F
N
1.9
Wind Variable Wind from SW
Gusts 6.0 mph

Today
High -- | Low -- °F
--% Chance of Precip.
Yesterday
High -- | Low -- °F
Precip. -- in
Pressure 28.94 in
Visibility 6.2 miles
Clouds Few 2100 ft
Mostly Cloudy 2700 ft
Windchill 45 °F
Dew Point 40 °F
Humidity 84%
Rainfall 0.07 in
Snow Depth Not available.
7:45 AM 4:32 PM
New Moon, 1% visible
METAR ESKN 091220Z 23011G23KT 180V250 9999 FEW021CB BKN027 06/03 Q0980 R26/290195
Pressure 28.94 in
Visibility 6.2 miles
Clouds Few 2100 ft
Mostly Cloudy 2700 ft
Windchill 45 °F
Dew Point 40 °F
Humidity 84%
Rainfall 0.07 in
Snow Depth Not available.
7:45 AM 4:32 PM
New Moon, 1% visible
METAR ESKN 091220Z 23011G23KT 180V250 9999 FEW021CB BKN027 06/03 Q0980 R26/290195

10-Day Weather Forecast

Almanac

Astronomy

Feb. 09, 2016 Rise Set
Actual Time
Civil Twilight
Nautical Twilight
Astronomical Twilight
Moon
Length of Visible Light
Length of Day
Tomorrow will be .
, % of the Moon is Illuminated

Today's Extremes

Country Highs Country Lows

Community

WunderPhotos

Upload Photos

1,891,589 photos uploaded!

WunderBlog® & News

Nearby

Air Quality

  Air Quality AQ Index Pollutant
Not available.

Snow Depth

Station Depth Elevation

Earthquake Activity

City Distance Mag. Time & Date
Minimum magnitude displayed is 2.5.

Coastal Water Temperatures

Place Temperature

Stations

Nearby Weather Stations

Station Location Temp. Windchill Dew Point Humidity Wind Precip. Elev Updated Type